Time;durP1;ratioP1;P1;durP2;ratioP2;P2;SDS_P1;SDS_P2;PMS_P1;PMS_P2;Temp;Humidity;BMP_temperature;BMP_pressure;BME280_temperature;BME280_humidity;BME280_pressure;Samples;Min_cycle;Max_cycle;Signal;HPM_P1;HPM_P2
2023/04/06 00:01:10;;;;;;;0.10;0.10;;;0.20;99.90;;;;;;5021112;28;20018;-78
2023/04/06 00:03:37;;;;;;;0.20;0.20;;;0.20;99.90;;;;;;5022624;28;20018;-78
2023/04/06 00:06:03;;;;;;;0.20;0.20;;;0.30;99.90;;;;;;5023061;28;20814;-78
2023/04/06 00:08:29;;;;;;;0.20;0.20;;;0.40;99.90;;;;;;5023197;28;20021;-79
2023/04/06 00:10:55;;;;;;;0.20;0.20;;;0.40;99.90;;;;;;5022439;28;20106;-78
2023/04/06 00:13:21;;;;;;;0.10;0.10;;;0.40;99.90;;;;;;5004127;28;20049;-77
2023/04/06 00:15:46;;;;;;;0.10;0.10;;;0.50;99.90;;;;;;5022812;28;20033;-77
2023/04/06 00:18:12;;;;;;;1.67;1.63;;;0.60;99.90;;;;;;5025990;28;20063;-79
2023/04/06 00:20:38;;;;;;;0.20;0.20;;;0.50;99.90;;;;;;5030586;28;20053;-78
2023/04/06 00:23:04;;;;;;;0.10;0.10;;;0.50;99.90;;;;;;5029849;28;20194;-78
2023/04/06 00:25:30;;;;;;;0.20;0.20;;;0.50;99.90;;;;;;5030740;28;20753;-78
2023/04/06 00:27:56;;;;;;;0.20;0.20;;;0.70;99.90;;;;;;5029288;28;20325;-78
2023/04/06 00:30:22;;;;;;;0.20;0.20;;;0.70;99.90;;;;;;5023595;28;20025;-78
2023/04/06 00:32:47;;;;;;;0.20;0.20;;;0.70;99.90;;;;;;5023814;28;20036;-78
2023/04/06 00:35:14;;;;;;;0.23;0.23;;;0.70;99.90;;;;;;5029109;28;20091;-79
2023/04/06 00:37:40;;;;;;;0.20;0.20;;;0.70;99.90;;;;;;5032209;28;20029;-78
2023/04/06 00:40:07;;;;;;;0.30;0.30;;;0.70;99.90;;;;;;5030392;28;20624;-78
2023/04/06 00:42:32;;;;;;;0.20;0.20;;;0.70;99.90;;;;;;5022325;28;20025;-77
2023/04/06 00:45:00;;;;;;;0.13;0.13;;;0.80;99.90;;;;;;5004183;28;20083;-77
2023/04/06 00:47:26;;;;;;;0.20;0.20;;;0.70;99.90;;;;;;5021512;28;20037;-77
2023/04/06 00:49:55;;;;;;;0.50;0.50;;;0.70;99.90;;;;;;5021703;28;20026;-78
2023/04/06 00:52:21;;;;;;;0.30;0.30;;;0.80;99.90;;;;;;5021362;28;20037;-78
2023/04/06 00:54:47;;;;;;;0.17;0.17;;;0.90;99.90;;;;;;5021399;28;20056;-78
2023/04/06 00:57:13;;;;;;;0.33;0.33;;;0.90;99.90;;;;;;5020975;28;20033;-79
2023/04/06 00:59:42;;;;;;;2.73;2.63;;;0.90;99.90;;;;;;5003017;28;20121;-79
2023/04/06 01:02:09;;;;;;;0.10;0.10;;;0.90;99.90;;;;;;5021218;28;20028;-78
2023/04/06 01:04:35;;;;;;;0.23;0.23;;;0.90;99.90;;;;;;5003296;28;20112;-78
2023/04/06 01:07:01;;;;;;;0.22;0.22;;;0.90;99.90;;;;;;5021340;28;20652;-78
2023/04/06 01:09:30;;;;;;;0.20;0.20;;;0.90;99.90;;;;;;5021205;28;20021;-78
2023/04/06 01:11:57;;;;;;;0.10;0.10;;;1.00;99.90;;;;;;5019873;28;20026;-78
2023/04/06 01:14:23;;;;;;;0.20;0.20;;;0.90;99.90;;;;;;5020672;28;20057;-77
2023/04/06 01:16:51;;;;;;;16.95;16.25;;;1.10;99.90;;;;;;5020425;28;20038;-78
2023/04/06 01:19:17;;;;;;;0.57;0.57;;;1.10;99.90;;;;;;5020500;28;20017;-77
2023/04/06 01:21:43;;;;;;;0.20;0.20;;;1.10;99.90;;;;;;5020970;28;20021;-77
2023/04/06 01:24:09;;;;;;;0.17;0.17;;;0.80;99.90;;;;;;5024078;28;20071;-77
2023/04/06 01:26:37;;;;;;;0.60;0.60;;;0.50;99.90;;;;;;5023202;28;20029;-78
2023/04/06 01:29:03;;;;;;;0.20;0.20;;;0.60;99.90;;;;;;5002840;28;20022;-78
2023/04/06 01:31:29;;;;;;;0.20;0.20;;;0.60;99.90;;;;;;5020764;28;20662;-78
2023/04/06 01:33:55;;;;;;;0.13;0.13;;;0.80;99.90;;;;;;5021220;28;20040;-78
2023/04/06 01:36:21;;;;;;;0.20;0.20;;;0.80;99.90;;;;;;5003326;28;20021;-78
2023/04/06 01:38:47;;;;;;;0.17;0.17;;;0.90;99.90;;;;;;5020612;28;20033;-78
2023/04/06 01:41:14;;;;;;;0.52;0.52;;;;;;;;;;5021240;28;20021;-78
2023/04/06 01:43:39;;;;;;;0.10;0.10;;;1.00;99.90;;;;;;5020260;28;20028;-78
2023/04/06 01:46:06;;;;;;;0.10;0.10;;;;;;;;;;5001803;28;20041;-78
2023/04/06 01:48:31;;;;;;;2.10;2.00;;;1.00;99.90;;;;;;5019958;28;20510;-79
2023/04/06 01:50:57;;;;;;;0.10;0.10;;;1.00;99.90;;;;;;5002587;28;20040;-79
2023/04/06 01:53:23;;;;;;;0.10;0.10;;;1.00;99.90;;;;;;5020636;28;20103;-78
2023/04/06 01:55:49;;;;;;;0.20;0.20;;;1.00;99.90;;;;;;5020587;28;20026;-78
2023/04/06 01:58:15;;;;;;;0.20;0.20;;;1.00;99.90;;;;;;5020052;28;20113;-77
2023/04/06 02:00:41;;;;;;;0.20;0.20;;;0.10;99.90;;;;;;5020159;28;20026;-78
2023/04/06 02:03:06;;;;;;;0.10;0.10;;;1.00;99.90;;;;;;5020683;28;20021;-78
2023/04/06 02:05:37;;;;;;;0.30;0.30;;;1.10;99.90;;;;;;5020239;28;20056;-78
2023/04/06 02:08:07;;;;;;;0.20;0.20;;;1.10;99.90;;;;;;5005383;28;20029;-77
2023/04/06 02:10:34;;;;;;;0.10;0.10;;;0.80;99.90;;;;;;5022765;28;20030;-78
2023/04/06 02:13:00;;;;;;;0.20;0.20;;;1.00;99.90;;;;;;5022614;28;20614;-79
2023/04/06 02:15:27;;;;;;;0.50;0.50;;;1.00;99.90;;;;;;5002514;28;20029;-79
2023/04/06 02:17:53;;;;;;;0.20;0.20;;;1.10;99.90;;;;;;5019406;28;20128;-77
2023/04/06 02:20:18;;;;;;;0.20;0.20;;;1.10;99.90;;;;;;5019721;28;20029;-80
2023/04/06 02:22:44;;;;;;;0.10;0.10;;;1.20;99.90;;;;;;5019658;28;20698;-79
2023/04/06 02:25:10;;;;;;;0.20;0.20;;;1.20;99.90;;;;;;5019706;28;20028;-78
2023/04/06 02:27:36;;;;;;;0.20;0.20;;;1.20;99.90;;;;;;5020370;28;20033;-79
2023/04/06 02:30:06;;;;;;;0.10;0.10;;;1.30;99.90;;;;;;5019939;28;20028;-78
2023/04/06 02:32:32;;;;;;;0.10;0.10;;;1.30;99.90;;;;;;5026001;28;20033;-78
2023/04/06 02:34:57;;;;;;;0.17;0.17;;;1.30;99.90;;;;;;5028542;28;20029;-78
2023/04/06 02:37:23;;;;;;;0.20;0.20;;;1.30;99.90;;;;;;5024641;28;20022;-79
2023/04/06 02:39:50;;;;;;;0.10;0.10;;;1.30;99.90;;;;;;5023752;28;20040;-78
2023/04/06 02:42:16;;;;;;;0.20;0.20;;;1.40;99.90;;;;;;5022590;28;20024;-79
2023/04/06 02:44:42;;;;;;;0.15;0.15;;;1.40;99.90;;;;;;5020483;28;20029;-79
2023/04/06 02:47:08;;;;;;;0.10;0.10;;;1.40;99.90;;;;;;5019736;28;20029;-79
2023/04/06 02:49:34;;;;;;;0.20;0.20;;;1.40;99.90;;;;;;5019987;28;20029;-78
2023/04/06 02:52:00;;;;;;;0.20;0.20;;;1.40;99.90;;;;;;5019521;28;20159;-78
2023/04/06 02:54:26;;;;;;;0.10;0.10;;;1.40;99.90;;;;;;5018920;28;20116;-78
2023/04/06 02:56:52;;;;;;;0.17;0.17;;;1.40;99.90;;;;;;5027364;28;20060;-79
2023/04/06 02:59:17;;;;;;;0.20;0.20;;;1.40;99.90;;;;;;5027984;28;20111;-79
2023/04/06 03:01:43;;;;;;;7.82;7.30;;;1.20;99.90;;;;;;5001522;28;20040;-79
2023/04/06 03:04:09;;;;;;;0.40;0.40;;;1.40;99.90;;;;;;5021259;28;20561;-78
2023/04/06 03:06:35;;;;;;;0.20;0.20;;;1.40;99.90;;;;;;5001149;28;20773;-79
2023/04/06 03:09:01;;;;;;;0.52;0.52;;;1.40;99.90;;;;;;5020688;28;20568;-78
2023/04/06 03:11:26;;;;;;;0.20;0.20;;;1.50;99.90;;;;;;5019193;28;20275;-78
2023/04/06 03:13:55;;;;;;;0.10;0.10;;;1.50;99.90;;;;;;5000748;28;20045;-77
2023/04/06 03:16:21;;;;;;;4.28;3.13;;;1.50;99.90;;;;;;5018642;28;20025;-78
2023/04/06 03:18:47;;;;;;;0.10;0.10;;;1.40;99.90;;;;;;5020877;28;20297;-78
2023/04/06 03:21:15;;;;;;;0.43;0.43;;;1.40;99.90;;;;;;5019024;28;20048;-78
2023/04/06 03:23:41;;;;;;;0.10;0.10;;;1.40;99.90;;;;;;5001185;28;20025;-78
2023/04/06 03:26:07;;;;;;;0.20;0.20;;;1.30;99.90;;;;;;5020310;28;20018;-78
2023/04/06 03:28:33;;;;;;;32.37;13.30;;;1.20;99.90;;;;;;5009287;28;20044;-78
2023/04/06 03:30:59;;;;;;;0.10;0.10;;;;;;;;;;5020893;28;20037;-78
2023/04/06 03:33:27;;;;;;;0.20;0.20;;;1.30;99.90;;;;;;5001593;28;20038;-78
2023/04/06 03:35:56;;;;;;;0.13;0.13;;;1.20;99.90;;;;;;5002980;28;20725;-78
2023/04/06 03:38:21;;;;;;;0.20;0.20;;;1.20;99.90;;;;;;5023520;28;20013;-78
2023/04/06 03:40:47;;;;;;;0.20;0.20;;;1.30;99.90;;;;;;5022812;28;20048;-78
2023/04/06 03:43:13;;;;;;;0.20;0.20;;;1.30;99.90;;;;;;5022645;28;20660;-80
2023/04/06 03:45:39;;;;;;;0.10;0.10;;;1.30;99.90;;;;;;5023036;28;20184;-78
2023/04/06 03:48:05;;;;;;;0.15;0.15;;;1.30;99.90;;;;;;5026038;28;20132;-77
2023/04/06 03:50:31;;;;;;;0.20;0.20;;;1.30;99.90;;;;;;5025876;28;20022;-78
2023/04/06 03:52:57;;;;;;;0.20;0.20;;;;;;;;;;5008987;28;20095;-78
2023/04/06 03:55:23;;;;;;;0.20;0.20;;;1.10;99.90;;;;;;5027690;28;20029;-78
2023/04/06 03:57:49;;;;;;;0.20;0.20;;;1.10;99.90;;;;;;5024809;28;20032;-78
2023/04/06 04:00:15;;;;;;;0.20;0.20;;;1.10;99.90;;;;;;5022182;28;20025;-78
2023/04/06 04:02:41;;;;;;;0.20;0.20;;;1.00;99.90;;;;;;5022489;28;20022;-79
2023/04/06 04:05:07;;;;;;;0.10;0.10;;;1.00;99.90;;;;;;5030098;28;20049;-78
2023/04/06 04:07:33;;;;;;;0.20;0.20;;;1.00;99.90;;;;;;5023450;28;20029;-78
2023/04/06 04:09:59;;;;;;;0.10;0.10;;;1.00;99.90;;;;;;5023968;28;20231;-78
2023/04/06 04:12:25;;;;;;;0.20;0.20;;;1.00;99.90;;;;;;5023539;28;20083;-79
2023/04/06 04:14:50;;;;;;;0.20;0.20;;;0.90;99.90;;;;;;5024167;28;20033;-78
2023/04/06 04:17:16;;;;;;;0.20;0.20;;;0.80;99.90;;;;;;5006053;28;20037;-78
2023/04/06 04:19:42;;;;;;;0.20;0.20;;;0.70;99.90;;;;;;5023841;28;20653;-79
2023/04/06 04:22:08;;;;;;;2.17;2.13;;;0.70;99.90;;;;;;5024135;28;20021;-78
2023/04/06 04:24:33;;;;;;;0.23;0.23;;;0.70;99.90;;;;;;5024580;28;20029;-78
2023/04/06 04:27:00;;;;;;;0.20;0.20;;;0.60;99.90;;;;;;5022662;28;20017;-78
2023/04/06 04:29:26;;;;;;;0.20;0.20;;;0.60;99.90;;;;;;5022861;28;20089;-78
2023/04/06 04:31:52;;;;;;;0.20;0.20;;;0.60;99.90;;;;;;5022083;28;20320;-79
2023/04/06 04:34:23;;;;;;;0.10;0.10;;;0.60;99.90;;;;;;5022644;28;20503;-78
2023/04/06 04:36:49;;;;;;;0.20;0.20;;;0.60;99.90;;;;;;5023183;28;20024;-78
2023/04/06 04:39:15;;;;;;;0.20;0.20;;;0.60;99.90;;;;;;5003831;28;20041;-79
2023/04/06 04:41:41;;;;;;;0.20;0.20;;;0.50;99.90;;;;;;5021526;28;20751;-78
2023/04/06 04:44:07;;;;;;;0.10;0.10;;;0.50;99.90;;;;;;5022541;28;20032;-78
2023/04/06 04:46:32;;;;;;;0.20;0.20;;;0.50;99.90;;;;;;5023005;28;20025;-78
2023/04/06 04:48:59;;;;;;;0.50;0.50;;;0.60;99.90;;;;;;5026058;28;20367;-79
2023/04/06 04:51:25;;;;;;;0.20;0.20;;;-0.40;99.90;;;;;;5004995;28;20026;-78
2023/04/06 04:53:51;;;;;;;0.20;0.20;;;;;;;;;;5021764;28;20040;-78
2023/04/06 04:56:17;;;;;;;0.40;0.40;;;0.70;99.90;;;;;;5003715;28;20533;-78
2023/04/06 04:58:43;;;;;;;0.20;0.20;;;;;;;;;;5021907;28;20029;-78
2023/04/06 05:01:09;;;;;;;0.20;0.20;;;0.60;99.90;;;;;;5021213;28;20104;-78
2023/04/06 05:03:38;;;;;;;2.00;1.90;;;0.70;99.90;;;;;;5022838;28;20045;-78
2023/04/06 05:06:05;;;;;;;0.50;0.50;;;0.80;99.90;;;;;;5026322;28;20151;-78
2023/04/06 05:08:31;;;;;;;0.20;0.20;;;0.80;99.90;;;;;;5029254;28;20110;-77
2023/04/06 05:10:57;;;;;;;0.20;0.20;;;0.80;99.90;;;;;;5032372;28;20029;-78
2023/04/06 05:13:22;;;;;;;0.20;0.20;;;0.80;99.90;;;;;;5032057;28;20025;-78
2023/04/06 05:15:48;;;;;;;2.53;1.80;;;0.90;99.90;;;;;;5021683;28;20072;-78
2023/04/06 05:18:14;;;;;;;0.50;0.50;;;0.80;99.90;;;;;;5021415;28;20075;-79
2023/04/06 05:20:40;;;;;;;0.20;0.20;;;0.80;99.90;;;;;;5022075;28;20100;-79
2023/04/06 05:23:06;;;;;;;0.20;0.20;;;0.90;99.90;;;;;;5022850;28;20053;-78
2023/04/06 05:25:32;;;;;;;0.10;0.10;;;0.90;99.90;;;;;;5022434;28;20242;-79
2023/04/06 05:27:58;;;;;;;0.20;0.20;;;1.00;99.90;;;;;;5003446;28;20026;-79
2023/04/06 05:30:24;;;;;;;0.10;0.10;;;1.00;99.90;;;;;;5021380;28;20044;-79
2023/04/06 05:32:50;;;;;;;0.20;0.20;;;1.00;99.90;;;;;;5021746;28;20024;-80
2023/04/06 05:35:17;;;;;;;0.20;0.20;;;0.90;99.90;;;;;;5021663;28;20053;-78
2023/04/06 05:37:43;;;;;;;8.77;7.63;;;0.80;99.90;;;;;;5004253;28;20045;-79
2023/04/06 05:40:09;;;;;;;0.10;0.10;;;0.90;99.90;;;;;;5004474;28;20029;-79
2023/04/06 05:42:42;;;;;;;0.20;0.20;;;0.90;99.90;;;;;;5022085;28;20101;-79
2023/04/06 05:45:10;;;;;;;6.10;5.90;;;1.00;99.90;;;;;;5022270;28;20032;-78
2023/04/06 05:47:37;;;;;;;0.10;0.10;;;1.10;99.90;;;;;;5020634;28;20114;-79
2023/04/06 05:50:03;;;;;;;0.20;0.20;;;1.10;99.90;;;;;;5021593;28;20025;-79
2023/04/06 05:52:29;;;;;;;0.20;0.20;;;1.10;99.90;;;;;;5021176;28;20064;-78
2023/04/06 05:54:55;;;;;;;0.10;0.10;;;1.20;99.90;;;;;;5021125;28;20509;-79
2023/04/06 05:57:20;;;;;;;3.80;3.58;;;1.30;99.90;;;;;;5021540;28;20018;-79
2023/04/06 05:59:46;;;;;;;27.00;25.23;;;1.40;99.90;;;;;;5020852;28;20089;-79
2023/04/06 06:02:12;;;;;;;1.75;1.55;;;1.40;99.90;;;;;;5021232;28;20064;-79
2023/04/06 06:04:38;;;;;;;0.22;0.22;;;1.50;99.90;;;;;;5021929;28;20021;-79
2023/04/06 06:07:03;;;;;;;0.30;0.30;;;1.60;99.90;;;;;;5021438;28;20100;-78
2023/04/06 06:09:29;;;;;;;0.20;0.20;;;1.50;99.90;;;;;;5029554;28;20017;-79
2023/04/06 06:11:55;;;;;;;4.07;3.95;;;1.60;99.90;;;;;;5042906;28;20024;-79
2023/04/06 06:14:21;;;;;;;4.15;4.00;;;1.50;99.90;;;;;;5060887;28;20597;-80
2023/04/06 06:16:47;;;;;;;0.20;0.20;;;1.50;99.90;;;;;;5060377;28;20024;-78
2023/04/06 06:19:13;;;;;;;0.10;0.10;;;1.60;99.90;;;;;;5042033;28;20736;-78
2023/04/06 06:21:39;;;;;;;0.60;0.60;;;1.60;99.90;;;;;;5060933;28;20020;-78
2023/04/06 06:24:06;;;;;;;0.73;0.73;;;1.60;99.90;;;;;;5042230;28;20778;-78
2023/04/06 06:26:32;;;;;;;0.20;0.20;;;;;;;;;;5059455;28;20117;-78
2023/04/06 06:28:59;;;;;;;0.20;0.20;;;;;;;;;;5041826;28;20570;-78
2023/04/06 06:31:24;;;;;;;0.10;0.10;;;1.60;99.90;;;;;;5059331;28;20048;-79
2023/04/06 06:33:51;;;;;;;0.20;0.20;;;1.70;99.90;;;;;;5059591;28;20720;-78
2023/04/06 06:36:18;;;;;;;0.20;0.20;;;1.70;99.90;;;;;;5062020;28;20013;-79
2023/04/06 06:38:44;;;;;;;0.20;0.20;;;1.80;99.90;;;;;;5062205;28;20024;-78
2023/04/06 06:41:11;;;;;;;0.20;0.20;;;1.80;99.90;;;;;;5044689;28;20047;-78
2023/04/06 06:43:37;;;;;;;0.10;0.10;;;2.40;99.90;;;;;;5060650;28;20017;-79
2023/04/06 06:46:04;;;;;;;0.20;0.20;;;1.90;99.90;;;;;;5041615;28;20035;-78
2023/04/06 06:48:30;;;;;;;0.10;0.10;;;2.00;99.90;;;;;;5041977;28;20518;-79
2023/04/06 06:50:56;;;;;;;0.13;0.13;;;2.10;99.90;;;;;;5070143;28;20044;-79
2023/04/06 06:53:23;;;;;;;0.20;0.20;;;2.30;99.90;;;;;;5065547;28;20544;-78
2023/04/06 06:55:49;;;;;;;0.10;0.10;;;0.60;99.90;;;;;;5064181;28;20029;-78
2023/04/06 06:58:17;;;;;;;0.10;0.10;;;2.20;99.90;;;;;;5044669;28;20031;-78
2023/04/06 07:00:44;;;;;;;11.98;11.45;;;2.30;99.90;;;;;;5044665;28;20671;-78
2023/04/06 07:03:10;;;;;;;0.28;0.28;;;2.30;99.90;;;;;;5060781;28;20055;-78
2023/04/06 07:05:35;;;;;;;0.10;0.10;;;2.00;99.90;;;;;;5060658;28;20095;-79
2023/04/06 07:08:01;;;;;;;0.20;0.20;;;2.40;99.90;;;;;;5061085;28;20021;-78
2023/04/06 07:10:27;;;;;;;0.20;0.20;;;2.30;99.90;;;;;;5060239;28;20028;-79
2023/04/06 07:12:53;;;;;;;0.10;0.10;;;2.50;99.90;;;;;;5060301;28;20322;-79
2023/04/06 07:15:19;;;;;;;0.10;0.10;;;2.60;99.90;;;;;;5060049;28;20128;-79
2023/04/06 07:17:45;;;;;;;0.10;0.10;;;2.70;99.90;;;;;;5042120;28;20031;-78
2023/04/06 07:20:11;;;;;;;0.10;0.10;;;2.70;99.90;;;;;;5060499;28;20024;-79
2023/04/06 07:22:43;;;;;;;0.10;0.10;;;3.00;99.90;;;;;;5061660;28;20013;-78
2023/04/06 07:25:10;;;;;;;9.95;9.30;;;3.10;99.90;;;;;;5045191;28;20104;-79
2023/04/06 07:27:36;;;;;;;0.10;0.10;;;3.00;99.90;;;;;;5063824;28;20717;-80
2023/04/06 07:30:03;;;;;;;0.10;0.10;;;3.10;99.90;;;;;;5061945;28;20085;-80
2023/04/06 07:32:30;;;;;;;4.20;2.63;;;3.30;99.90;;;;;;5045743;28;20021;-79
2023/04/06 07:34:58;;;;;;;10.77;10.25;;;3.20;99.90;;;;;;5060846;28;20141;-81
2023/04/06 07:37:24;;;;;;;0.20;0.20;;;3.50;99.90;;;;;;5062408;28;20021;-79
2023/04/06 07:39:49;;;;;;;1.95;1.83;;;3.10;99.90;;;;;;5062267;28;20019;-79
2023/04/06 07:42:15;;;;;;;0.20;0.20;;;3.10;99.90;;;;;;5062863;28;20017;-79
2023/04/06 07:44:41;;;;;;;0.10;0.10;;;3.10;99.90;;;;;;5048264;28;20064;-79
2023/04/06 07:47:07;;;;;;;0.10;0.10;;;3.10;99.90;;;;;;5047936;28;20067;-80
2023/04/06 07:49:33;;;;;;;0.10;0.10;;;3.40;99.90;;;;;;5068417;28;20041;-79
2023/04/06 07:51:58;;;;;;;0.10;0.10;;;3.60;99.90;;;;;;5065949;28;20225;-79
2023/04/06 07:54:25;;;;;;;0.00;0.00;;;3.70;99.90;;;;;;5065138;28;20040;-79
2023/04/06 07:56:50;;;;;;;0.10;0.10;;;3.70;99.90;;;;;;5063312;28;20569;-79
2023/04/06 07:59:18;;;;;;;0.10;0.10;;;3.70;99.90;;;;;;5061334;28;20020;-79
2023/04/06 08:01:44;;;;;;;0.00;0.00;;;3.80;99.90;;;;;;5062150;28;20100;-78
2023/04/06 08:04:10;;;;;;;0.15;0.15;;;3.70;99.90;;;;;;5064126;28;20233;-79
2023/04/06 08:06:36;;;;;;;0.10;0.10;;;3.70;99.90;;;;;;5064945;28;20049;-80
2023/04/06 08:09:03;;;;;;;1.48;1.48;;;3.70;99.90;;;;;;5064386;28;20052;-79
2023/04/06 08:11:29;;;;;;;0.10;0.10;;;4.60;99.90;;;;;;5043325;28;20025;-79
2023/04/06 08:13:56;;;;;;;0.10;0.10;;;3.80;99.90;;;;;;5060479;28;20044;-78
2023/04/06 08:16:24;;;;;;;0.00;0.00;;;3.70;99.90;;;;;;5044397;28;20025;-79
2023/04/06 08:18:50;;;;;;;0.10;0.10;;;4.00;99.90;;;;;;5064098;28;20064;-79
2023/04/06 08:21:15;;;;;;;0.00;0.00;;;4.10;99.90;;;;;;5066374;28;20021;-80
2023/04/06 08:23:41;;;;;;;0.32;0.32;;;4.10;99.90;;;;;;5070336;28;20062;-79
2023/04/06 08:26:09;;;;;;;0.10;0.10;;;4.00;99.90;;;;;;5075341;28;20047;-79
2023/04/06 08:28:35;;;;;;;0.00;0.00;;;3.90;99.90;;;;;;5072373;28;20031;-80
2023/04/06 08:31:10;;;;;;;0.75;0.75;;;4.10;99.90;;;;;;5069471;28;20027;-80
2023/04/06 08:33:39;;;;;;;2.55;2.45;;;4.70;99.90;;;;;;5076508;28;20063;-80
2023/04/06 08:36:10;;;;;;;0.10;0.10;;;4.30;99.90;;;;;;5057708;28;20123;-79
2023/04/06 08:38:39;;;;;;;0.40;0.40;;;4.60;99.90;;;;;;5051500;28;20029;-79
2023/04/06 08:41:13;;;;;;;0.20;0.20;;;4.50;99.90;;;;;;5052089;28;20029;-79
2023/04/06 08:44:09;;;;;;;1.00;1.00;;;4.70;99.90;;;;;;5073250;28;20012;-79
2023/04/06 08:46:35;;;;;;;0.00;0.00;;;5.00;99.90;;;;;;5065471;28;20667;-79
2023/04/06 08:49:06;;;;;;;0.10;0.10;;;2.70;99.90;;;;;;5062727;28;20329;-81
2023/04/06 08:51:32;;;;;;;0.08;0.08;;;5.30;99.90;;;;;;5054046;28;20084;-79
2023/04/06 08:54:00;;;;;;;0.00;0.00;;;5.40;99.90;;;;;;5071848;28;20125;-79
2023/04/06 08:56:28;;;;;;;0.00;0.00;;;5.30;99.90;;;;;;5043511;28;20032;-79
2023/04/06 08:58:55;;;;;;;0.03;0.03;;;5.30;99.90;;;;;;5063105;28;20079;-80
2023/04/06 09:01:25;;;;;;;0.10;0.10;;;5.40;99.90;;;;;;5065681;28;20028;-80
2023/04/06 09:03:58;;;;;;;0.00;0.00;;;5.50;99.90;;;;;;5075069;28;20017;-80
2023/04/06 09:06:27;;;;;;;0.00;0.00;;;5.70;99.90;;;;;;5069793;28;20078;-79
2023/04/06 09:08:54;;;;;;;0.08;0.08;;;5.80;99.90;;;;;;5047794;28;20020;-80
2023/04/06 09:11:20;;;;;;;0.00;0.00;;;5.80;99.90;;;;;;5050390;28;20024;-79
2023/04/06 09:13:57;;;;;;;0.00;0.00;;;5.80;99.90;;;;;;5051908;28;20597;-80
2023/04/06 09:16:23;;;;;;;0.00;0.00;;;5.60;99.90;;;;;;5047791;28;20033;-80
2023/04/06 09:18:49;;;;;;;0.10;0.10;;;5.80;99.90;;;;;;5049707;28;20012;-81
2023/04/06 09:21:19;;;;;;;2.80;2.65;;;5.60;99.90;;;;;;5045155;28;20028;-80
2023/04/06 09:23:48;;;;;;;3.75;3.65;;;5.60;99.90;;;;;;5032095;28;20091;-80
2023/04/06 09:26:20;;;;;;;0.00;0.00;;;5.80;99.90;;;;;;5033333;28;20029;-77
2023/04/06 09:28:56;;;;;;;0.05;0.05;;;5.80;99.90;;;;;;5031432;28;20814;-76
2023/04/06 09:31:27;;;;;;;0.10;0.10;;;5.90;99.90;;;;;;5009905;28;20514;-79
2023/04/06 09:33:54;;;;;;;0.03;0.03;;;5.90;99.90;;;;;;5030475;28;20664;-77
2023/04/06 09:36:30;;;;;;;0.00;0.00;;;6.00;99.90;;;;;;5025260;28;20051;-79
2023/04/06 09:38:57;;;;;;;0.10;0.10;;;5.90;99.90;;;;;;5022356;28;20017;-78
2023/04/06 09:41:32;;;;;;;0.03;0.03;;;6.00;99.90;;;;;;5006697;28;20022;-78
2023/04/06 09:44:09;;;;;;;0.00;0.00;;;6.40;99.90;;;;;;5005226;28;20032;-79
2023/04/06 09:46:40;;;;;;;0.10;0.10;;;6.20;99.90;;;;;;5021428;28;20056;-78
2023/04/06 09:49:08;;;;;;;0.10;0.10;;;6.40;99.90;;;;;;5023539;28;20049;-78
2023/04/06 09:51:46;;;;;;;0.00;0.00;;;6.30;99.90;;;;;;5021409;28;20108;-79
2023/04/06 09:54:16;;;;;;;0.00;0.00;;;6.00;99.90;;;;;;5024340;28;20040;-78
2023/04/06 09:56:47;;;;;;;0.57;0.57;;;6.00;99.90;;;;;;5021335;28;20024;-79
2023/04/06 09:59:45;;;;;;;0.00;0.00;;;6.10;99.90;;;;;;5022449;28;20060;-78
2023/04/06 10:02:46;;;;;;;0.28;0.28;;;6.20;99.40;;;;;;5031293;28;20053;-79
2023/04/06 10:05:36;;;;;;;0.00;0.00;;;6.10;99.90;;;;;;5031214;28;20080;-76
2023/04/06 10:08:11;;;;;;;0.00;0.00;;;6.10;98.70;;;;;;5033636;28;20025;-78
2023/04/06 10:10:37;;;;;;;0.10;0.10;;;6.30;99.30;;;;;;5036175;28;20101;-78
2023/04/06 10:13:10;;;;;;;0.00;0.00;;;6.50;99.30;;;;;;5035727;28;20080;-78
2023/04/06 10:15:38;;;;;;;0.00;0.00;;;6.60;99.40;;;;;;5035544;28;20057;-76
2023/04/06 10:18:07;;;;;;;0.00;0.00;;;7.00;98.90;;;;;;5024636;28;20044;-77
2023/04/06 10:20:39;;;;;;;0.00;0.00;;;6.90;98.30;;;;;;5023363;28;20025;-76
2023/04/06 10:23:15;;;;;;;0.10;0.10;;;7.10;99.40;;;;;;5026045;28;20030;-76
2023/04/06 10:25:55;;;;;;;0.10;0.10;;;7.10;99.60;;;;;;5026086;28;20401;-77
2023/04/06 10:28:23;;;;;;;0.35;0.35;;;7.30;99.90;;;;;;5025270;28;20089;-76
2023/04/06 10:30:56;;;;;;;0.13;0.13;;;8.10;93.90;;;;;;5028410;28;20021;-76
2023/04/06 10:33:22;;;;;;;0.03;0.03;;;7.90;90.70;;;;;;5012545;28;20680;-78
2023/04/06 10:35:48;;;;;;;0.10;0.10;;;7.90;92.40;;;;;;5025837;28;20522;-77
2023/04/06 10:38:14;;;;;;;0.10;0.10;;;8.00;90.80;;;;;;5047897;28;20059;-77
2023/04/06 10:40:46;;;;;;;0.03;0.03;;;8.10;88.40;;;;;;5044999;28;20017;-77
2023/04/06 10:43:20;;;;;;;0.20;0.20;;;8.30;91.20;;;;;;5044940;28;20017;-77
2023/04/06 10:45:55;;;;;;;0.10;0.10;;;8.90;91.50;;;;;;5026042;28;20021;-75
2023/04/06 10:48:22;;;;;;;0.03;0.03;;;9.00;86.40;;;;;;5045430;28;20059;-77
2023/04/06 10:50:54;;;;;;;0.10;0.10;;;9.20;86.90;;;;;;5052145;28;20305;-76
2023/04/06 10:53:33;;;;;;;0.10;0.10;;;9.20;89.40;;;;;;5029796;28;20021;-78
2023/04/06 10:56:02;;;;;;;0.10;0.10;;;9.30;83.00;;;;;;5035163;28;20029;-78
2023/04/06 10:58:30;;;;;;;0.10;0.10;;;9.50;80.60;;;;;;5033669;28;20029;-78
2023/04/06 11:00:56;;;;;;;0.10;0.10;;;9.50;74.50;;;;;;5004732;28;20060;-78
2023/04/06 11:03:23;;;;;;;0.10;0.10;;;9.10;79.00;;;;;;5028294;28;20025;-80
2023/04/06 11:05:51;;;;;;;0.10;0.10;;;8.70;82.30;;;;;;5039890;28;20047;-81
2023/04/06 11:08:28;;;;;;;0.65;0.65;;;9.10;83.50;;;;;;5045352;28;20052;-77
2023/04/06 11:11:16;;;;;;;23.73;13.63;;;8.80;81.50;;;;;;5060044;28;20017;-79
2023/04/06 11:13:44;;;;;;;0.00;0.00;;;8.80;75.00;;;;;;5034049;28;20228;-81
2023/04/06 11:16:17;;;;;;;0.10;0.10;;;9.00;74.90;;;;;;5039631;28;20361;-77
2023/04/06 11:18:52;;;;;;;0.10;0.10;;;8.90;75.20;;;;;;5031278;28;20083;-78
2023/04/06 11:21:19;;;;;;;0.10;0.10;;;9.10;74.30;;;;;;5043639;28;20022;-76
2023/04/06 11:23:45;;;;;;;0.10;0.10;;;9.00;71.00;;;;;;5024292;28;20029;-77
2023/04/06 11:26:15;;;;;;;0.15;0.15;;;9.20;72.50;;;;;;5021985;28;20022;-77
2023/04/06 11:28:43;;;;;;;0.10;0.10;;;9.60;74.30;;;;;;5033596;28;20593;-76
2023/04/06 11:31:11;;;;;;;0.10;0.10;;;9.90;73.60;;;;;;5031507;28;20020;-77
2023/04/06 11:33:38;;;;;;;0.10;0.10;;;10.10;69.60;;;;;;5024691;28;20029;-79
2023/04/06 11:36:05;;;;;;;0.10;0.10;;;10.10;71.50;;;;;;5039194;28;20751;-77
2023/04/06 11:38:31;;;;;;;0.15;0.15;;;10.30;71.10;;;;;;5039792;28;20021;-79
2023/04/06 11:40:57;;;;;;;0.10;0.10;;;9.90;70.20;;;;;;5040375;28;20025;-79
2023/04/06 11:43:30;;;;;;;0.10;0.10;;;10.10;68.60;;;;;;5022462;28;20030;-79
2023/04/06 11:46:04;;;;;;;0.10;0.10;;;10.50;66.80;;;;;;5047508;28;20025;-79
2023/04/06 11:48:31;;;;;;;0.15;0.15;;;10.40;67.40;;;;;;5027842;28;20029;-79
2023/04/06 11:50:58;;;;;;;0.10;0.10;;;11.10;68.60;;;;;;5036361;28;20659;-78
2023/04/06 11:53:24;;;;;;;0.10;0.10;;;11.20;66.30;;;;;;5021382;28;20551;-81
2023/04/06 11:55:50;;;;;;;0.10;0.10;;;11.70;65.40;;;;;;5004322;28;20026;-83
2023/04/06 11:58:16;;;;;;;0.20;0.20;;;11.90;65.20;;;;;;5022110;28;20087;-78
2023/04/06 12:00:45;;;;;;;0.20;0.20;;;12.20;62.40;;;;;;5021255;28;20064;-78
2023/04/06 12:03:11;;;;;;;0.10;0.10;;;11.80;61.90;;;;;;5028984;28;20455;-76
2023/04/06 12:05:39;;;;;;;0.20;0.20;;;11.40;65.00;;;;;;5043872;28;20045;-78
2023/04/06 12:08:05;;;;;;;0.20;0.20;;;11.50;68.10;;;;;;5029302;28;20020;-78
2023/04/06 12:10:30;;;;;;;0.10;0.10;;;11.50;67.80;;;;;;5028520;28;20086;-80
2023/04/06 12:12:56;;;;;;;0.10;0.10;;;11.60;69.20;;;;;;5043679;28;20199;-86
2023/04/06 12:15:22;;;;;;;0.20;0.20;;;11.80;68.50;;;;;;5042172;28;20055;-78
2023/04/06 12:17:52;;;;;;;0.10;0.10;;;12.00;70.20;;;;;;5041238;28;20055;-81
2023/04/06 12:20:18;;;;;;;0.20;0.20;;;12.90;70.50;;;;;;5025878;28;20526;-78
2023/04/06 12:22:44;;;;;;;1.30;1.30;;;12.70;64.40;;;;;;5026213;28;20018;-78
2023/04/06 12:25:10;;;;;;;0.20;0.20;;;13.10;65.40;;;;;;5004216;28;20808;-78
2023/04/06 12:27:36;;;;;;;0.10;0.10;;;13.20;64.50;;;;;;5021336;28;20017;-79
2023/04/06 12:30:02;;;;;;;0.10;0.10;;;12.80;60.80;;;;;;5021199;28;20643;-79
2023/04/06 12:32:28;;;;;;;0.10;0.10;;;12.30;61.60;;;;;;5020722;28;20625;-82
2023/04/06 12:34:54;;;;;;;0.35;0.35;;;11.80;60.30;;;;;;5038417;28;20066;-78
2023/04/06 12:37:20;;;;;;;0.20;0.20;;;11.60;62.40;;;;;;5023092;28;20025;-78
2023/04/06 12:39:46;;;;;;;0.10;0.10;;;11.70;61.90;;;;;;5040330;28;20083;-78
2023/04/06 12:42:13;;;;;;;0.20;0.20;;;11.60;60.90;;;;;;5023103;28;20289;-79
2023/04/06 12:44:39;;;;;;;0.25;0.25;;;11.40;64.20;;;;;;5022798;28;20078;-80
2023/04/06 12:47:07;;;;;;;0.20;0.20;;;12.00;63.80;;;;;;5039955;28;20295;-79
2023/04/06 12:49:33;;;;;;;0.15;0.15;;;12.50;64.50;;;;;;5040832;28;20017;-76
2023/04/06 12:51:58;;;;;;;0.13;0.13;;;13.20;64.20;;;;;;5030086;28;20676;-80
2023/04/06 12:54:26;;;;;;;0.10;0.10;;;13.60;59.70;;;;;;5021629;28;20041;-79
2023/04/06 12:56:52;;;;;;;0.10;0.10;;;14.00;62.10;;;;;;5020835;28;20022;-76
2023/04/06 12:59:18;;;;;;;0.20;0.20;;;14.30;60.60;;;;;;5002558;28;20017;-78